Time;durP1;ratioP1;P1;durP2;ratioP2;P2;SDS_P1;SDS_P2;PMS_P1;PMS_P2;Temp;Humidity;BMP_temperature;BMP_pressure;BME280_temperature;BME280_humidity;BME280_pressure;Samples;Min_cycle;Max_cycle;Signal;HPM_P1;HPM_P2
2022/08/03 00:01:22;;;;;;;8.43;1.77;;;;;;;20.10;57.55;100835.47;5019036;28;20132;-73
2022/08/03 00:03:47;;;;;;;4.85;1.45;;;;;;;20.10;57.57;100824.78;5036933;28;20033;-73
2022/08/03 00:06:13;;;;;;;7.25;1.90;;;;;;;20.12;57.73;100823.78;5037071;28;20025;-73
2022/08/03 00:08:38;;;;;;;4.28;1.50;;;;;;;20.15;57.62;100826.28;5019054;28;20084;-73
2022/08/03 00:11:05;;;;;;;6.70;1.90;;;;;;;20.15;57.67;100826.28;5018939;28;20029;-72
2022/08/03 00:13:31;;;;;;;8.48;1.98;;;;;;;20.17;57.34;100827.06;5036502;28;20033;-73
2022/08/03 00:15:57;;;;;;;6.00;1.67;;;;;;;20.20;57.58;100825.19;5035366;28;20022;-72
2022/08/03 00:18:22;;;;;;;7.32;1.92;;;;;;;20.19;57.54;100818.97;5036377;28;20560;-73
2022/08/03 00:20:55;;;;;;;5.57;1.60;;;;;;;20.21;57.91;100822.41;5036362;28;20030;-72
2022/08/03 00:23:21;;;;;;;9.57;1.80;;;;;;;20.27;57.36;100819.41;5035367;28;20025;-72
2022/08/03 00:25:46;;;;;;;4.47;1.40;;;;;;;20.32;57.19;100817.34;5018485;28;20125;-72
2022/08/03 00:28:11;;;;;;;8.10;2.13;;;;;;;20.34;56.97;100815.44;5036166;28;20029;-72
2022/08/03 00:30:37;;;;;;;3.65;1.88;;;;;;;20.30;57.39;100813.03;5018202;28;20033;-72
2022/08/03 00:33:02;;;;;;;5.20;1.20;;;;;;;20.29;57.16;100814.84;5035872;28;20151;-73
2022/08/03 00:35:31;;;;;;;6.93;1.52;;;;;;;20.27;57.65;100806.09;5036199;28;20034;-73
2022/08/03 00:37:56;;;;;;;5.63;1.55;;;;;;;20.27;57.31;100805.22;5034818;28;20033;-76
2022/08/03 00:40:22;;;;;;;5.80;1.73;;;;;;;20.25;57.56;100799.94;5036201;28;20381;-72
2022/08/03 00:42:57;;;;;;;5.00;1.42;;;;;;;20.27;57.49;100810.56;5034956;28;20049;-72
2022/08/03 00:45:25;;;;;;;9.77;1.98;;;;;;;20.20;57.72;100804.69;5035844;28;20052;-72
2022/08/03 00:47:51;;;;;;;10.02;1.98;;;;;;;20.15;57.88;100809.44;5034624;28;20075;-72
2022/08/03 00:50:17;;;;;;;6.18;1.70;;;;;;;20.14;57.91;100807.69;5035896;28;20037;-72
2022/08/03 00:52:43;;;;;;;6.13;1.85;;;;;;;20.11;58.05;100807.88;5034777;28;20065;-72
2022/08/03 00:55:10;;;;;;;5.57;2.00;;;;;;;20.03;58.16;100805.63;5001942;28;20068;-75
2022/08/03 00:57:36;;;;;;;8.10;1.65;;;;;;;20.02;58.42;100803.00;5034627;28;20091;-75
2022/08/03 01:00:04;;;;;;;3.85;1.35;;;;;;;20.00;58.30;100802.25;5034655;28;20029;-73
2022/08/03 01:02:30;;;;;;;8.25;1.75;;;;;;;19.96;58.49;100798.03;5034229;28;20032;-73
2022/08/03 01:04:56;;;;;;;8.68;1.95;;;;;;;19.92;58.29;100797.31;5034654;28;20021;-74
2022/08/03 01:07:29;;;;;;;4.80;1.40;;;;;;;19.95;58.61;100799.84;5034535;28;20079;-74
2022/08/03 01:10:05;;;;;;;5.57;1.42;;;;;;;19.92;58.94;100798.19;5035501;28;20029;-74
2022/08/03 01:12:52;;;;;;;5.10;1.20;;;;;;;19.93;59.07;100791.03;5034781;28;20062;-74
2022/08/03 01:15:48;;;;;;;3.33;1.48;;;;;;;19.88;58.92;100788.63;5034393;28;20024;-74
2022/08/03 01:18:21;;;;;;;5.90;1.70;;;;;;;19.88;58.65;100787.78;5033449;28;20033;-74
2022/08/03 01:20:55;;;;;;;6.43;1.20;;;;;;;19.92;58.45;100790.19;5035690;28;20022;-74
2022/08/03 01:23:32;;;;;;;4.35;1.17;;;;;;;20.05;58.20;100786.84;5035488;28;20107;-74
2022/08/03 01:26:26;;;;;;;6.22;1.35;;;;;;;20.05;58.58;100782.38;5035394;28;20079;-74
2022/08/03 01:29:21;;;;;;;4.75;1.50;;;;;;;20.14;58.12;100781.00;5035392;28;20025;-74
2022/08/03 01:31:55;;;;;;;5.22;1.50;;;;;;;20.14;58.38;100781.84;5035214;28;20033;-74
2022/08/03 01:34:23;;;;;;;5.03;1.50;;;;;;;20.24;57.63;100776.03;5033879;28;20029;-72
2022/08/03 01:36:52;;;;;;;2.75;1.45;;;;;;;20.32;57.65;100769.31;5034940;28;20049;-72
2022/08/03 01:39:19;;;;;;;6.30;1.77;;;;;;;20.39;57.34;100778.72;5034976;28;20026;-74
2022/08/03 01:42:04;;;;;;;6.07;1.38;;;;;;;20.41;57.62;100767.94;5034023;28;20017;-75
2022/08/03 01:44:34;;;;;;;3.40;1.40;;;;;;;20.43;57.08;100776.72;5034889;28;20025;-75
2022/08/03 01:47:01;;;;;;;8.15;2.00;;;;;;;20.41;57.20;100776.81;5034934;28;20061;-74
2022/08/03 01:49:34;;;;;;;4.22;1.30;;;;;;;20.46;57.28;100763.19;5033646;28;20083;-73
2022/08/03 01:52:05;;;;;;;6.50;1.40;;;;;;;20.46;57.19;100768.53;5034963;28;20017;-74
2022/08/03 01:54:35;;;;;;;6.50;1.98;;;;;;;20.49;57.32;100767.53;5034643;28;20029;-75
2022/08/03 01:57:02;;;;;;;4.70;1.40;;;;;;;20.51;57.30;100763.84;5033182;28;20029;-74
2022/08/03 01:59:29;;;;;;;5.00;1.50;;;;;;;20.57;56.82;100757.28;5034682;28;20037;-74
2022/08/03 02:01:56;;;;;;;4.75;1.52;;;;;;;20.65;56.93;100755.88;5016958;28;20037;-75
2022/08/03 02:04:24;;;;;;;3.97;1.45;;;;;;;20.67;56.81;100758.50;5033217;28;20017;-74
2022/08/03 02:06:51;;;;;;;6.50;1.30;;;;;;;20.72;56.80;100759.06;5033225;28;20021;-74
2022/08/03 02:09:19;;;;;;;3.60;1.45;;;;;;;20.70;56.43;100763.63;5034234;28;20029;-74
2022/08/03 02:11:46;;;;;;;5.47;1.63;;;;;;;20.67;56.68;100753.16;5017002;28;20052;-74
2022/08/03 02:14:13;;;;;;;5.97;1.70;;;;;;;20.70;56.88;100755.63;5034479;28;20048;-74
2022/08/03 02:16:39;;;;;;;5.32;1.75;;;;;;;20.71;56.84;100749.34;5034207;28;20036;-74
2022/08/03 02:19:07;;;;;;;3.88;1.60;;;;;;;20.72;56.79;100756.41;5034163;28;20017;-74
2022/08/03 02:21:36;;;;;;;5.88;1.90;;;;;;;20.72;56.83;100756.41;5034351;28;20033;-75
2022/08/03 02:24:03;;;;;;;4.72;1.45;;;;;;;20.66;57.04;100756.75;5034293;28;20029;-74
2022/08/03 02:26:30;;;;;;;4.38;1.75;;;;;;;20.66;56.80;100751.41;5034264;28;20021;-75
2022/08/03 02:28:58;;;;;;;3.60;1.35;;;;;;;20.55;57.49;100759.19;5016659;28;20025;-75
2022/08/03 02:31:29;;;;;;;2.95;1.38;;;;;;;20.44;57.65;100757.09;5032925;28;20040;-75
2022/08/03 02:34:02;;;;;;;7.65;1.65;;;;;;;20.27;58.25;100760.72;5032727;28;20041;-73
2022/08/03 02:36:29;;;;;;;5.68;1.33;;;;;;;20.23;58.08;100756.50;5033782;28;20204;-74
2022/08/03 02:38:59;;;;;;;4.57;1.33;;;;;;;20.22;58.32;100757.44;5016773;28;20049;-74
2022/08/03 02:41:42;;;;;;;6.03;1.38;;;;;;;20.24;58.33;100754.69;5032662;28;20095;-74
2022/08/03 02:44:10;;;;;;;6.32;1.60;;;;;;;20.29;57.89;100756.16;5016473;28;20492;-75
2022/08/03 02:46:40;;;;;;;6.18;1.85;;;;;;;20.35;58.05;100753.16;5033762;28;20441;-75
2022/08/03 02:49:06;;;;;;;6.63;1.35;;;;;;;20.41;57.69;100758.13;5032595;28;20436;-73
2022/08/03 02:51:34;;;;;;;2.60;1.38;;;;;;;20.51;57.39;100754.97;5032628;28;20033;-73
2022/08/03 02:54:02;;;;;;;4.00;1.70;;;;;;;20.62;57.21;100756.06;5033024;28;20029;-73
2022/08/03 02:56:29;;;;;;;4.90;1.60;;;;;;;20.71;57.11;100749.34;5033579;28;20037;-73
2022/08/03 02:58:57;;;;;;;6.28;1.80;;;;;;;20.77;56.79;100754.31;5032303;28;20029;-73
2022/08/03 03:01:25;;;;;;;3.80;1.40;;;;;;;20.81;56.74;100755.00;5032358;28;20381;-73
2022/08/03 03:03:53;;;;;;;5.20;1.63;;;;;;;20.88;56.53;100754.56;5032513;28;20433;-70
2022/08/03 03:06:20;;;;;;;3.42;1.25;;;;;;;20.86;56.83;100761.78;5049047;28;20032;-73
2022/08/03 03:08:47;;;;;;;5.95;1.65;;;;;;;20.77;57.02;100759.66;5033402;28;20021;-74
2022/08/03 03:11:14;;;;;;;5.18;1.35;;;;;;;20.67;57.13;100761.16;5033479;28;20033;-74
2022/08/03 03:13:43;;;;;;;3.90;1.50;;;;;;;20.54;57.66;100754.78;5033506;28;20026;-74
2022/08/03 03:16:11;;;;;;;5.05;1.40;;;;;;;20.41;57.83;100751.94;5033506;28;20088;-74
2022/08/03 03:18:37;;;;;;;4.15;1.40;;;;;;;20.40;58.20;100751.06;5033402;28;20025;-75
2022/08/03 03:21:03;;;;;;;4.15;1.77;;;;;;;20.41;57.96;100757.25;5033358;28;20095;-75
2022/08/03 03:23:30;;;;;;;5.72;1.80;;;;;;;20.37;58.29;100756.56;5033483;28;20044;-75
2022/08/03 03:25:57;;;;;;;5.35;2.00;;;;;;;20.36;58.56;100760.19;5032383;28;20377;-75
2022/08/03 03:28:24;;;;;;;3.80;1.63;;;;;;;20.43;58.46;100750.03;5015618;28;20029;-75
2022/08/03 03:30:50;;;;;;;3.85;1.38;;;;;;;20.59;57.87;100755.41;5032136;28;20480;-73
2022/08/03 03:33:16;;;;;;;7.20;1.73;;;;;;;20.73;57.52;100751.94;5033325;28;20025;-73
2022/08/03 03:35:44;;;;;;;3.80;1.35;;;;;;;20.83;57.32;100762.00;5033180;28;20104;-73
2022/08/03 03:38:10;;;;;;;4.25;1.50;;;;;;;20.91;57.13;100759.72;5033001;28;20088;-74
2022/08/03 03:40:37;;;;;;;4.68;1.30;;;;;;;20.99;56.92;100759.28;5033512;28;20061;-74
2022/08/03 03:43:06;;;;;;;3.78;1.70;;;;;;;20.99;56.93;100761.94;5033336;28;20052;-74
2022/08/03 03:45:33;;;;;;;3.58;1.38;;;;;;;20.95;57.15;100763.09;5033198;28;20083;-73
2022/08/03 03:48:03;;;;;;;4.07;1.55;;;;;;;20.89;57.11;100764.28;5031690;28;20026;-73
2022/08/03 03:50:33;;;;;;;5.65;1.73;;;;;;;20.86;57.32;100772.47;5033281;28;20033;-74
2022/08/03 03:52:59;;;;;;;5.18;1.70;;;;;;;20.95;57.08;100765.75;5033333;28;20080;-73
2022/08/03 03:55:24;;;;;;;4.68;1.80;;;;;;;21.05;56.94;100768.72;5033160;28;20025;-73
2022/08/03 03:57:50;;;;;;;5.13;1.92;;;;;;;21.16;56.51;100771.63;5033323;28;20519;-74
2022/08/03 04:00:17;;;;;;;6.25;1.80;;;;;;;21.16;56.59;100772.50;5033147;28;20377;-75
2022/08/03 04:02:44;;;;;;;3.72;1.40;;;;;;;21.21;56.51;100771.34;5032963;28;20029;-73
2022/08/03 04:11:10;;;;;;;5.18;1.67;;;;;;;21.38;55.89;100776.56;4995508;28;20041;-73
2022/08/03 04:13:39;;;;;;;4.05;1.55;;;;;;;21.28;56.40;100776.25;5032216;28;20446;-73
2022/08/03 04:16:10;;;;;;;4.65;1.27;;;;;;;21.16;56.51;100782.31;5036516;28;20033;-74
2022/08/03 04:18:39;;;;;;;3.47;1.42;;;;;;;21.04;56.71;100786.56;5036641;28;20199;-74
2022/08/03 04:21:09;;;;;;;2.33;1.30;;;;;;;20.92;57.28;100781.94;5035430;28;20025;-73
2022/08/03 04:23:39;;;;;;;6.50;1.65;;;;;;;20.78;57.93;100787.22;5035148;28;20021;-74
2022/08/03 04:26:08;;;;;;;5.68;1.98;;;;;;;20.72;57.92;100793.78;5035039;28;20026;-74
2022/08/03 04:28:36;;;;;;;4.60;1.77;;;;;;;20.59;58.28;100788.28;5036205;28;20059;-73
2022/08/03 04:31:03;;;;;;;6.07;2.00;;;;;;;20.66;58.36;100800.31;5036274;28;20024;-72
2022/08/03 04:33:32;;;;;;;2.40;1.40;;;;;;;20.79;58.33;100796.97;5034812;28;20025;-73
2022/08/03 04:35:59;;;;;;;6.03;1.70;;;;;;;20.97;57.70;100808.38;5034633;28;20564;-73
2022/08/03 04:38:28;;;;;;;5.22;1.67;;;;;;;21.15;57.27;100796.63;5036387;28;20087;-73
2022/08/03 04:40:55;;;;;;;3.92;1.27;;;;;;;21.43;56.54;100793.22;5036082;28;20109;-73
2022/08/03 04:43:22;;;;;;;7.05;2.00;;;;;;;21.62;56.23;100791.16;5036158;28;20033;-73
2022/08/03 04:45:50;;;;;;;7.78;2.22;;;;;;;21.84;55.46;100801.38;5036146;28;20030;-73
2022/08/03 04:48:16;;;;;;;4.28;1.95;;;;;;;22.08;54.99;100798.13;5035978;28;20026;-73
2022/08/03 04:50:42;;;;;;;5.93;2.45;;;;;;;22.27;54.26;100803.19;5034679;28;20032;-73
2022/08/03 04:53:08;;;;;;;5.05;2.08;;;;;;;22.47;53.99;100800.09;5035814;28;20025;-73
2022/08/03 04:55:34;;;;;;;4.93;1.83;;;;;;;22.63;53.76;100799.97;5018185;28;20037;-73
2022/08/03 04:58:01;;;;;;;3.70;1.77;;;;;;;22.77;53.23;100797.22;5034423;28;20075;-73
2022/08/03 05:00:27;;;;;;;3.78;1.90;;;;;;;22.95;53.01;100800.56;5017921;28;20040;-73
2022/08/03 05:02:54;;;;;;;5.13;1.83;;;;;;;23.09;52.51;100797.78;5034558;28;20030;-73
2022/08/03 05:05:20;;;;;;;7.20;1.80;;;;;;;23.13;52.43;100806.47;5017896;28;20032;-73
2022/08/03 05:07:45;;;;;;;5.35;2.70;;;;;;;23.20;52.19;100804.25;5018197;28;20034;-73
2022/08/03 05:10:12;;;;;;;5.70;2.00;;;;;;;23.22;52.28;100803.19;5035736;28;20373;-73
2022/08/03 05:12:38;;;;;;;7.55;2.20;;;;;;;23.34;51.80;100812.22;5035410;28;20032;-71
2022/08/03 05:15:04;;;;;;;9.05;2.28;;;;;;;23.43;51.70;100816.97;5035562;28;20025;-72
2022/08/03 05:17:30;;;;;;;9.70;2.10;;;;;;;23.53;51.69;100809.13;5033143;28;20026;-73
2022/08/03 05:19:56;;;;;;;7.60;2.40;;;;;;;23.57;51.35;100814.16;5035185;28;20013;-73
2022/08/03 05:22:21;;;;;;;6.47;2.28;;;;;;;23.65;51.25;100805.59;5033998;28;20021;-71
2022/08/03 05:24:47;;;;;;;8.23;2.03;;;;;;;23.75;51.00;100813.91;5035173;28;20091;-73
2022/08/03 05:27:18;;;;;;;7.38;2.40;;;;;;;23.80;51.08;100815.28;5033866;28;20116;-74
2022/08/03 05:29:48;;;;;;;7.68;2.22;;;;;;;23.84;50.92;100821.31;5033956;28;20033;-74
2022/08/03 05:32:17;;;;;;;6.55;2.13;;;;;;;23.96;50.81;100819.59;5033781;28;20039;-73
2022/08/03 05:34:43;;;;;;;6.70;2.20;;;;;;;24.05;50.54;100821.59;5033751;28;20559;-73
2022/08/03 05:37:09;;;;;;;9.63;2.85;;;;;;;24.07;50.46;100817.84;5033626;28;20049;-73
2022/08/03 05:39:34;;;;;;;6.32;2.10;;;;;;;24.16;50.27;100826.22;5035095;28;20053;-74
2022/08/03 05:42:00;;;;;;;8.60;2.13;;;;;;;24.14;50.35;100822.78;5033637;28;20140;-73
2022/08/03 05:44:26;;;;;;;7.18;1.83;;;;;;;24.19;50.08;100826.84;5033835;28;20059;-73
2022/08/03 05:46:52;;;;;;;5.93;2.40;;;;;;;24.25;50.22;100821.03;5033497;28;20109;-73
2022/08/03 05:49:18;;;;;;;6.63;2.50;;;;;;;24.27;49.97;100815.56;5034541;28;20034;-72
2022/08/03 05:51:43;;;;;;;7.50;2.65;;;;;;;24.27;50.00;100823.63;5034873;28;20139;-73
2022/08/03 05:54:09;;;;;;;5.95;2.05;;;;;;;24.27;49.92;100823.63;5016933;28;20481;-73
2022/08/03 05:56:34;;;;;;;6.18;2.35;;;;;;;24.29;49.84;100824.34;5034847;28;20120;-73
2022/08/03 05:59:00;;;;;;;6.15;2.58;;;;;;;24.22;49.94;100834.72;5033530;28;20104;-73
2022/08/03 06:01:26;;;;;;;10.13;2.25;;;;;;;24.18;49.91;100825.16;5034572;28;20100;-73
2022/08/03 06:03:51;;;;;;;5.50;2.30;;;;;;;24.22;50.03;100832.03;5033500;28;20393;-72
2022/08/03 06:06:17;;;;;;;7.95;2.10;;;;;;;24.25;50.01;100831.78;5034381;28;20057;-73
2022/08/03 06:08:44;;;;;;;4.97;2.25;;;;;;;24.36;49.67;100832.84;5016554;28;20358;-73
2022/08/03 06:11:10;;;;;;;5.70;2.08;;;;;;;24.51;49.43;100823.72;5033302;28;20025;-73
2022/08/03 06:13:37;;;;;;;6.60;2.28;;;;;;;24.62;49.42;100831.84;5033131;28;20028;-73
2022/08/03 06:16:03;;;;;;;5.43;2.60;;;;;;;24.68;49.22;100831.38;5033149;28;20021;-73
2022/08/03 06:18:28;;;;;;;7.60;2.65;;;;;;;24.64;49.36;100832.56;5032940;28;20022;-72
2022/08/03 06:20:54;;;;;;;9.43;2.58;;;;;;;24.48;49.90;100835.53;5034377;28;20092;-72
2022/08/03 06:23:19;;;;;;;8.07;2.90;;;;;;;24.49;49.90;100839.06;5034142;28;20107;-72
2022/08/03 06:25:44;;;;;;;8.68;2.53;;;;;;;24.54;49.79;100831.56;5033116;28;20021;-72
2022/08/03 06:28:12;;;;;;;7.68;1.90;;;;;;;24.71;49.30;100839.22;5032724;28;20075;-72
2022/08/03 06:30:39;;;;;;;5.30;1.70;;;;;;;24.96;48.87;100832.03;5032619;28;20029;-72
2022/08/03 06:33:04;;;;;;;5.72;1.73;;;;;;;25.22;48.22;100827.41;5034017;28;20029;-72
2022/08/03 06:35:30;;;;;;;4.40;1.92;;;;;;;25.30;48.25;100831.22;5016531;28;20124;-71
2022/08/03 06:37:55;;;;;;;7.78;2.47;;;;;;;25.41;47.94;100832.22;5032461;28;20115;-72
2022/08/03 06:40:32;;;;;;;6.53;2.50;;;;;;;25.59;47.65;100832.66;5032427;28;20025;-72
2022/08/03 06:42:59;;;;;;;7.85;2.50;;;;;;;25.82;46.92;100841.66;5032676;28;20091;-72
2022/08/03 06:45:25;;;;;;;8.27;2.35;;;;;;;25.97;46.80;100835.94;5032269;28;20041;-72
2022/08/03 06:48:01;;;;;;;7.15;1.92;;;;;;;26.10;46.24;100834.97;5033813;28;20028;-72
2022/08/03 06:50:26;;;;;;;8.60;2.00;;;;;;;26.32;46.14;100839.47;5033819;28;20021;-72
2022/08/03 06:52:52;;;;;;;8.35;2.33;;;;;;;26.46;45.90;100833.88;5033837;28;20029;-72
2022/08/03 06:55:18;;;;;;;4.60;1.83;;;;;;;26.69;45.39;100842.75;5048949;28;20025;-72
2022/08/03 06:57:43;;;;;;;7.18;2.20;;;;;;;26.91;44.85;100837.31;5033992;28;20027;-72
2022/08/03 07:00:10;;;;;;;3.53;1.67;;;;;;;27.02;44.60;100834.59;5033366;28;20045;-71
2022/08/03 07:02:36;;;;;;;5.97;1.92;;;;;;;27.11;44.15;100835.69;5032203;28;20112;-72
2022/08/03 07:05:01;;;;;;;5.97;1.98;;;;;;;27.27;43.75;100836.09;5033549;28;20104;-72
2022/08/03 07:07:27;;;;;;;6.82;2.17;;;;;;;27.42;43.50;100835.78;5032506;28;20029;-72
2022/08/03 07:09:52;;;;;;;4.82;1.52;;;;;;;27.62;43.14;100839.47;5033472;28;20118;-71
2022/08/03 07:12:18;;;;;;;5.35;2.00;;;;;;;27.66;42.90;100830.97;5033657;28;20385;-72
2022/08/03 07:14:43;;;;;;;6.13;1.90;;;;;;;27.89;42.44;100836.28;5015779;28;20033;-72
2022/08/03 07:17:09;;;;;;;5.30;1.63;;;;;;;28.14;41.87;100838.50;5032162;28;20083;-72
2022/08/03 07:19:34;;;;;;;3.83;2.03;;;;;;;28.39;41.58;100829.09;5032089;28;20063;-72
2022/08/03 07:22:00;;;;;;;4.32;1.63;;;;;;;28.52;41.30;100825.28;5033420;28;20083;-72
2022/08/03 07:24:25;;;;;;;5.40;1.50;;;;;;;28.75;40.65;100831.34;5033399;28;20033;-71
2022/08/03 07:26:51;;;;;;;5.13;2.10;;;;;;;28.85;40.42;100833.06;5033470;28;20384;-71
2022/08/03 07:29:16;;;;;;;3.38;1.70;;;;;;;29.00;40.19;100825.41;5031977;28;20033;-72
2022/08/03 07:31:41;;;;;;;3.67;1.45;;;;;;;29.12;39.81;100831.53;5033570;28;20036;-72
2022/08/03 07:34:07;;;;;;;4.25;1.42;;;;;;;29.13;39.23;100831.41;5015758;28;20381;-72
2022/08/03 07:36:32;;;;;;;4.05;1.67;;;;;;;29.12;39.31;100828.81;5033163;28;20409;-71
2022/08/03 07:38:58;;;;;;;5.05;1.90;;;;;;;29.38;38.90;100834.53;5033393;28;20021;-71
2022/08/03 07:41:23;;;;;;;5.28;1.48;;;;;;;29.41;38.54;100829.69;5033655;28;20122;-72
2022/08/03 07:43:49;;;;;;;5.78;1.67;;;;;;;29.47;38.72;100830.94;5035995;28;20104;-72
2022/08/03 07:46:14;;;;;;;4.43;1.85;;;;;;;29.57;38.25;100837.25;5003488;28;20057;-72
2022/08/03 07:48:40;;;;;;;2.90;1.60;;;;;;;29.71;37.98;100835.91;5035748;28;20117;-72
2022/08/03 07:51:05;;;;;;;5.85;1.35;;;;;;;29.74;37.89;100829.38;5036126;28;20042;-72
2022/08/03 07:53:31;;;;;;;3.85;1.38;;;;;;;29.95;37.51;100828.16;5035879;28;20481;-71
2022/08/03 07:55:56;;;;;;;3.63;1.40;;;;;;;30.05;37.80;100821.84;5036168;28;20037;-72
2022/08/03 07:58:23;;;;;;;3.15;1.60;;;;;;;30.14;36.87;100826.38;5036179;28;20025;-72
2022/08/03 08:00:49;;;;;;;4.72;1.70;;;;;;;29.90;37.38;100829.59;5036876;28;20056;-72
2022/08/03 08:03:15;;;;;;;3.05;1.50;;;;;;;29.82;37.31;100832.19;5019283;28;20033;-72
2022/08/03 08:05:41;;;;;;;2.17;1.60;;;;;;;29.76;37.46;100832.75;5035588;28;20021;-72
2022/08/03 08:08:07;;;;;;;4.43;1.60;;;;;;;29.64;37.22;100826.66;5035526;28;20435;-71
2022/08/03 08:10:33;;;;;;;3.75;1.60;;;;;;;29.53;37.42;100832.22;5037101;28;20017;-72
2022/08/03 08:12:59;;;;;;;2.10;1.33;;;;;;;29.61;37.29;100830.53;5036497;28;20152;-72
2022/08/03 08:15:25;;;;;;;3.17;1.70;;;;;;;29.54;37.09;100823.09;5036595;28;20053;-72
2022/08/03 08:17:53;;;;;;;3.50;1.60;;;;;;;29.42;36.90;100830.53;5036603;28;20389;-72
2022/08/03 08:20:21;;;;;;;2.47;1.33;;;;;;;29.67;37.13;100829.09;5036577;28;20048;-72
2022/08/03 08:22:46;;;;;;;2.15;1.17;;;;;;;29.80;37.44;100823.34;5036529;28;20053;-72
2022/08/03 08:25:12;;;;;;;2.67;1.60;;;;;;;29.52;36.89;100834.06;5035118;28;20430;-72
2022/08/03 08:27:46;;;;;;;8.05;1.85;;;;;;;29.27;36.75;100831.97;5002324;28;20037;-72
2022/08/03 08:30:13;;;;;;;2.90;1.50;;;;;;;29.38;37.68;100829.97;5035165;28;20572;-71
2022/08/03 08:32:38;;;;;;;3.05;1.58;;;;;;;29.36;37.47;100839.22;5035062;28;20033;-72
2022/08/03 08:35:05;;;;;;;3.10;1.42;;;;;;;29.30;37.74;100834.38;5035181;28;20469;-72
2022/08/03 08:37:31;;;;;;;1.55;1.20;;;;;;;29.30;37.81;100834.38;5018353;28;20041;-71
2022/08/03 08:39:57;;;;;;;2.47;1.60;;;;;;;29.45;37.21;100827.53;5035188;28;20389;-72
2022/08/03 08:42:22;;;;;;;4.55;1.70;;;;;;;29.36;37.21;100831.94;5034858;28;20032;-71
2022/08/03 08:44:51;;;;;;;2.05;1.55;;;;;;;29.38;37.15;100835.38;5034955;28;20033;-72
2022/08/03 08:47:23;;;;;;;4.20;1.65;;;;;;;29.30;36.91;100828.97;5034760;28;20488;-72
2022/08/03 08:49:52;;;;;;;2.17;1.58;;;;;;;29.40;37.49;100827.09;5035979;28;20033;-70
2022/08/03 08:52:23;;;;;;;3.22;1.70;;;;;;;29.52;37.49;100825.94;5033222;28;20112;-71
2022/08/03 08:54:49;;;;;;;5.38;1.60;;;;;;;29.65;37.44;100831.09;5035867;28;20022;-72
2022/08/03 08:57:15;;;;;;;4.40;1.55;;;;;;;29.74;37.27;100827.50;5034975;28;20082;-72
2022/08/03 08:59:42;;;;;;;14.55;2.42;;;;;;;29.67;37.03;100834.50;5018183;28;20053;-72
2022/08/03 09:02:08;;;;;;;12.07;2.38;;;;;;;29.82;37.06;100832.19;5035966;28;20064;-71
2022/08/03 09:04:34;;;;;;;5.97;2.22;;;;;;;29.84;36.91;100825.66;5035792;28;20052;-71
2022/08/03 09:07:01;;;;;;;10.82;2.38;;;;;;;29.86;36.77;100826.34;5034971;28;20401;-71
2022/08/03 09:09:26;;;;;;;6.95;1.80;;;;;;;29.77;36.56;100834.50;5034743;28;20034;-72
2022/08/03 09:11:52;;;;;;;4.75;1.75;;;;;;;29.70;36.64;100835.06;5035636;28;20025;-72
2022/08/03 09:14:18;;;;;;;2.95;1.88;;;;;;;29.89;36.45;100830.63;5034214;28;20116;-72
2022/08/03 09:16:59;;;;;;;5.78;1.90;;;;;;;29.85;35.83;100835.47;5034305;28;20029;-72
2022/08/03 09:19:25;;;;;;;3.38;1.65;;;;;;;29.94;36.08;100831.88;5035390;28;20014;-72
2022/08/03 09:22:13;;;;;;;4.95;2.05;;;;;;;30.03;35.80;100827.41;5035756;28;20041;-71
2022/08/03 09:25:12;;;;;;;9.63;1.83;;;;;;;29.87;35.81;100819.91;5034314;28;20380;-72
2022/08/03 09:27:44;;;;;;;4.65;1.83;;;;;;;30.01;35.88;100831.28;5035460;28;20037;-72
2022/08/03 09:30:17;;;;;;;6.68;1.60;;;;;;;30.01;35.24;100817.75;5033918;28;20040;-72
2022/08/03 09:32:44;;;;;;;4.15;1.95;;;;;;;30.12;35.69;100823.81;5035215;28;20032;-72
2022/08/03 09:35:11;;;;;;;2.40;1.60;;;;;;;30.25;35.32;100822.66;5035118;28;20032;-72
2022/08/03 09:37:36;;;;;;;3.00;1.80;;;;;;;30.22;35.30;100814.81;5033553;28;20128;-70
2022/08/03 09:40:06;;;;;;;3.65;1.80;;;;;;;30.24;35.08;100819.06;5033725;28;20384;-71
2022/08/03 09:42:34;;;;;;;3.28;1.95;;;;;;;30.35;35.02;100818.03;5035054;28;20052;-72
2022/08/03 09:44:59;;;;;;;3.15;1.70;;;;;;;30.40;35.02;100823.84;5033758;28;20030;-71
2022/08/03 09:47:38;;;;;;;2.72;1.85;;;;;;;30.56;34.76;100823.19;5034879;28;20033;-72
2022/08/03 09:50:06;;;;;;;3.50;2.00;;;;;;;30.65;34.75;100814.16;5033812;28;20465;-72
2022/08/03 09:52:37;;;;;;;2.65;1.52;;;;;;;30.74;34.04;100810.53;5033859;28;20445;-71
2022/08/03 09:55:12;;;;;;;3.67;1.75;;;;;;;30.68;34.35;100813.81;5034926;28;20029;-72
2022/08/03 09:57:39;;;;;;;2.88;1.95;;;;;;;30.85;34.23;100815.75;5034860;28;20392;-71
2022/08/03 10:00:12;;;;;;;3.42;1.65;;;;;;;30.66;33.82;100816.69;5034980;28;20079;-71
2022/08/03 10:02:39;;;;;;;3.58;1.70;;;;;;;30.85;33.65;100817.63;5033450;28;20044;-70
2022/08/03 10:05:07;;;;;;;2.38;1.33;;;;;;;30.99;33.42;100816.22;5032873;28;20037;-70
2022/08/03 10:07:47;;;;;;;14.10;2.92;;;;;;;30.70;32.94;100809.13;5035070;28;20034;-72
2022/08/03 10:10:14;;;;;;;7.20;2.13;;;;;;;30.70;34.03;100806.41;5016915;28;20551;-72
2022/08/03 10:12:41;;;;;;;6.95;2.25;;;;;;;30.13;34.82;100809.28;5034568;28;20057;-72
2022/08/03 10:15:08;;;;;;;8.27;2.50;;;;;;;30.09;34.73;100810.56;5034490;28;20033;-70
2022/08/03 10:17:33;;;;;;;5.45;1.80;;;;;;;30.31;34.40;100812.06;5033346;28;20053;-71
2022/08/03 10:19:59;;;;;;;2.33;1.98;;;;;;;30.57;33.88;100800.50;5032907;28;20064;-71
2022/08/03 10:22:31;;;;;;;3.42;1.88;;;;;;;31.03;33.28;100804.03;5034405;28;20040;-71
2022/08/03 10:25:06;;;;;;;9.30;2.25;;;;;;;30.97;33.26;100796.53;5034229;28;20424;-71
2022/08/03 10:27:46;;;;;;;5.13;2.20;;;;;;;31.49;32.25;100797.50;5034452;28;20021;-71
2022/08/03 10:30:12;;;;;;;4.18;2.03;;;;;;;31.45;32.72;100801.56;5034525;28;20033;-71
2022/08/03 10:32:47;;;;;;;8.90;2.42;;;;;;;31.56;32.76;100804.00;5034277;28;20026;-71
2022/08/03 10:35:15;;;;;;;20.85;3.70;;;;;;;31.65;32.18;100808.47;5033189;28;20143;-71
2022/08/03 10:37:43;;;;;;;14.70;2.90;;;;;;;31.52;32.60;100799.91;5033878;28;20129;-71
2022/08/03 10:40:15;;;;;;;5.97;1.58;;;;;;;31.55;30.75;100794.13;5034057;28;20060;-70
2022/08/03 10:42:43;;;;;;;10.45;2.20;;;;;;;31.61;31.91;100789.94;5032604;28;20025;-71
2022/08/03 10:45:17;;;;;;;7.28;1.98;;;;;;;31.69;31.82;100792.72;5033890;28;20104;-70
2022/08/03 10:47:43;;;;;;;4.82;1.90;;;;;;;31.71;31.56;100784.41;5033925;28;20017;-70
2022/08/03 10:50:10;;;;;;;7.97;1.90;;;;;;;31.73;31.83;100787.81;5032567;28;20025;-71
2022/08/03 10:52:56;;;;;;;6.78;1.90;;;;;;;31.71;31.26;100787.13;5033594;28;20112;-71
2022/08/03 10:58:59;;;;;;;2.78;1.50;;;;;;;31.73;31.47;100783.22;5034235;28;20041;-70
2022/08/03 11:02:07;;;;;;;8.10;1.83;;;;;;;31.86;30.14;100785.53;5032570;28;20029;-70
2022/08/03 11:04:32;;;;;;;8.40;2.00;;;;;;;31.68;30.82;100774.72;5011820;28;20129;-70
2022/08/03 11:07:16;;;;;;;3.58;1.50;;;;;;;31.54;29.48;100787.00;4995743;28;20113;-71
2022/08/03 11:09:43;;;;;;;3.38;1.73;;;;;;;31.47;29.80;100779.66;5024315;28;20046;-70
2022/08/03 11:12:25;;;;;;;2.25;1.30;;;;;;;31.70;29.49;100777.28;5032411;28;20025;-71
2022/08/03 11:14:52;;;;;;;2.20;1.43;;;;;;;31.67;30.27;100780.28;5033334;28;20083;-70
2022/08/03 11:17:18;;;;;;;4.13;1.40;;;;;;;31.53;30.38;100782.59;5033250;28;20087;-70
2022/08/03 11:19:46;;;;;;;2.10;1.42;;;;;;;31.76;29.91;100779.31;5033463;28;20469;-69
2022/08/03 11:22:14;;;;;;;4.03;1.65;;;;;;;31.97;29.95;100777.09;5033853;28;20032;-70
2022/08/03 11:24:39;;;;;;;2.75;1.70;;;;;;;32.08;29.25;100776.81;5033329;28;20041;-71
2022/08/03 11:27:14;;;;;;;4.43;1.45;;;;;;;32.21;28.91;100783.66;5033418;28;20021;-70
2022/08/03 11:29:59;;;;;;;26.55;3.00;;;;;;;32.23;29.11;100768.03;5033308;28;20497;-70
2022/08/03 11:32:36;;;;;;;28.60;4.50;;;;;;;32.28;29.04;100782.84;5032141;28;20025;-69
2022/08/03 11:35:28;;;;;;;15.82;2.95;;;;;;;32.26;28.74;100775.88;5033268;28;20032;-70
2022/08/03 11:37:57;;;;;;;5.00;1.80;;;;;;;32.31;28.62;100768.06;5032012;28;20048;-70
2022/08/03 11:40:48;;;;;;;58.65;6.22;;;;;;;32.57;28.54;100774.28;5033389;28;20033;-72